createdAt,value
2022-11-18T00:00:26.028Z,66.30
2022-11-18T00:02:58.662Z,64.85
2022-11-18T00:05:31.547Z,68.43
2022-11-18T00:08:04.457Z,69.65
2022-11-18T00:10:40.784Z,66.70
2022-11-18T00:13:28.721Z,68.38
2022-11-18T00:16:03.709Z,63.40
2022-11-18T00:18:37.151Z,64.25
2022-11-18T00:21:12.023Z,65.13
2022-11-18T00:23:44.653Z,64.45
2022-11-18T00:26:17.366Z,60.13
2022-11-18T00:28:50.057Z,61.53
2022-11-18T00:31:22.742Z,68.03
2022-11-18T00:33:55.475Z,63.95
2022-11-18T00:36:29.934Z,66.97
2022-11-18T00:39:02.525Z,65.20
2022-11-18T00:41:51.119Z,72.57
2022-11-18T00:44:23.705Z,68.13
2022-11-18T00:46:56.713Z,69.18
2022-11-18T00:49:29.307Z,74.20
2022-11-18T00:52:02.350Z,73.35
2022-11-18T00:54:34.836Z,75.55
2022-11-18T00:57:07.524Z,77.22
2022-11-18T00:59:40.269Z,72.55
2022-11-18T01:02:12.784Z,70.80
2022-11-18T01:04:45.449Z,73.30
2022-11-18T01:07:18.118Z,72.53
2022-11-18T01:09:50.751Z,75.22
2022-11-18T01:12:38.589Z,78.25
2022-11-18T01:15:11.136Z,71.22
2022-11-18T01:17:43.646Z,74.10
2022-11-18T01:20:16.578Z,71.13
2022-11-18T01:22:49.285Z,66.68
2022-11-18T01:25:21.826Z,67.28
2022-11-18T01:27:54.648Z,69.22
2022-11-18T01:30:27.171Z,76.20
2022-11-18T01:32:59.721Z,67.80
2022-11-18T01:35:41.996Z,73.88
2022-11-18T01:38:15.116Z,68.57
2022-11-18T01:40:47.621Z,68.75
2022-11-18T01:43:22.337Z,69.60
2022-11-18T01:45:54.928Z,68.32
2022-11-18T01:48:32.455Z,67.22
2022-11-18T01:51:09.872Z,64.40
2022-11-18T01:53:48.083Z,64.80
2022-11-18T01:56:25.827Z,63.53
2022-11-18T01:59:03.769Z,61.97
2022-11-18T02:01:36.756Z,61.75
2022-11-18T02:04:10.082Z,57.22
2022-11-18T02:06:47.302Z,57.38
2022-11-18T02:09:19.988Z,60.75
2022-11-18T02:11:55.107Z,60.25
2022-11-18T02:14:32.356Z,59.55
2022-11-18T02:17:06.788Z,60.88
2022-11-18T02:19:47.448Z,58.57
2022-11-18T02:22:40.686Z,62.45
2022-11-18T02:25:30.476Z,59.10
2022-11-18T02:28:23.249Z,62.05
2022-11-18T02:31:07.582Z,64.72
2022-11-18T02:33:59.216Z,65.43
2022-11-18T02:36:42.610Z,64.03
2022-11-18T02:39:22.404Z,59.35
2022-11-18T02:41:57.696Z,56.80
2022-11-18T02:47:08.340Z,55.20
2022-11-18T02:49:47.552Z,55.85
2022-11-18T02:52:21.447Z,50.88
2022-11-18T02:54:56.420Z,56.78
2022-11-18T02:57:31.348Z,54.10
2022-11-18T03:00:05.302Z,59.13
2022-11-18T03:02:53.459Z,59.25
2022-11-18T03:05:41.659Z,59.20
2022-11-18T03:08:22.658Z,63.67
2022-11-18T03:11:11.007Z,64.47
2022-11-18T03:14:03.160Z,59.70
2022-11-18T03:16:55.293Z,66.38
2022-11-18T03:19:38.869Z,62.67
2022-11-18T03:22:30.216Z,76.55
2022-11-18T03:25:11.826Z,69.43
2022-11-18T03:28:05.608Z,66.82
2022-11-18T03:30:43.493Z,67.05
2022-11-18T03:33:25.257Z,67.65
2022-11-18T03:36:00.857Z,64.18
2022-11-18T03:38:39.674Z,64.85
2022-11-18T03:41:14.616Z,65.28
2022-11-18T03:43:58.719Z,66.43
2022-11-18T03:46:37.018Z,77.70
2022-11-18T03:49:15.394Z,78.22
2022-11-18T03:51:55.273Z,72.28
2022-11-18T03:54:31.425Z,76.95
2022-11-18T03:57:12.104Z,70.00
2022-11-18T03:59:48.636Z,73.32
2022-11-18T04:02:25.227Z,74.28
2022-11-18T04:05:00.482Z,83.72
2022-11-18T04:10:16.483Z,75.45
2022-11-18T04:13:08.186Z,76.35
2022-11-18T04:15:42.827Z,79.70
2022-11-18T04:18:15.412Z,70.97
2022-11-18T04:20:48.061Z,79.25
2022-11-18T04:23:20.898Z,76.93
2022-11-18T04:25:53.507Z,71.70
2022-11-18T04:28:26.155Z,78.45
2022-11-18T04:30:58.726Z,72.93
2022-11-18T04:33:31.356Z,70.40
2022-11-18T04:36:04.169Z,74.70
2022-11-18T04:38:37.097Z,79.68
2022-11-18T04:41:09.743Z,70.53
2022-11-18T04:43:42.842Z,69.15
2022-11-18T04:46:15.515Z,66.60
2022-11-18T04:48:48.226Z,65.85
2022-11-18T04:51:20.815Z,65.72
2022-11-18T04:53:53.474Z,60.95
2022-11-18T04:56:26.209Z,53.65
2022-11-18T04:59:01.376Z,53.80
2022-11-18T05:01:35.143Z,55.33
2022-11-18T05:04:08.674Z,49.88
2022-11-18T05:06:41.248Z,51.47
2022-11-18T05:09:14.149Z,49.03
2022-11-18T05:12:02.044Z,49.88
2022-11-18T05:14:35.273Z,49.10
2022-11-18T05:17:09.573Z,49.25
2022-11-18T05:19:42.174Z,49.33
2022-11-18T05:22:15.773Z,49.08
2022-11-18T05:24:48.619Z,46.85
2022-11-18T05:27:21.239Z,51.70
2022-11-18T05:29:53.889Z,48.85
2022-11-18T05:32:26.687Z,49.85
2022-11-18T05:34:59.453Z,49.08
2022-11-18T05:37:34.015Z,48.90
2022-11-18T05:40:07.893Z,48.45
2022-11-18T05:42:56.758Z,49.58
2022-11-18T05:45:29.457Z,48.17
2022-11-18T05:48:04.644Z,48.00
2022-11-18T05:50:39.149Z,46.65
2022-11-18T05:53:11.990Z,48.15
2022-11-18T05:55:53.123Z,48.80
2022-11-18T05:58:25.839Z,49.33
2022-11-18T06:01:03.625Z,47.30
2022-11-18T06:03:38.850Z,46.85
2022-11-18T06:06:14.956Z,47.50
2022-11-18T06:09:01.506Z,46.67
2022-11-18T06:11:41.120Z,49.13
2022-11-18T06:14:31.514Z,48.30
2022-11-18T06:17:07.281Z,51.10
2022-11-18T06:19:40.223Z,46.42
2022-11-18T06:22:13.570Z,47.45
2022-11-18T06:24:46.395Z,46.83
2022-11-18T06:27:20.067Z,48.35
2022-11-18T06:29:52.897Z,47.33
2022-11-18T06:32:25.580Z,47.92
2022-11-18T06:34:58.303Z,47.65
2022-11-18T06:37:31.035Z,47.88
2022-11-18T06:40:04.386Z,47.13
2022-11-18T06:42:52.573Z,49.15
2022-11-18T06:45:25.334Z,46.58
2022-11-18T06:48:00.856Z,48.45
2022-11-18T06:50:33.416Z,44.95
2022-11-18T06:53:06.394Z,48.80
2022-11-18T06:55:39.276Z,49.08
2022-11-18T06:58:12.172Z,51.13
2022-11-18T07:00:45.159Z,49.05
2022-11-18T07:03:18.644Z,49.15
2022-11-18T07:05:51.230Z,49.13
2022-11-18T07:08:23.836Z,50.22
2022-11-18T07:10:56.596Z,47.00
2022-11-18T07:13:29.374Z,47.88
2022-11-18T07:16:05.132Z,46.45
2022-11-18T07:18:39.556Z,43.28
2022-11-18T07:21:15.577Z,42.00
2022-11-18T07:23:48.769Z,43.78
2022-11-18T07:26:21.674Z,45.47
2022-11-18T07:28:54.582Z,44.80
2022-11-18T07:31:27.351Z,43.85
2022-11-18T07:34:00.119Z,44.92
2022-11-18T07:36:35.940Z,43.75
2022-11-18T07:39:10.140Z,43.30
2022-11-18T07:41:42.948Z,44.38
2022-11-18T07:44:17.724Z,45.25
2022-11-18T07:46:50.515Z,50.55
2022-11-18T07:49:23.796Z,48.40
2022-11-18T07:51:56.520Z,47.70
2022-11-18T07:54:29.194Z,43.13
2022-11-18T07:57:01.824Z,43.70
2022-11-18T07:59:34.497Z,41.60
2022-11-18T08:02:07.105Z,43.20
2022-11-18T08:04:40.511Z,42.63
2022-11-18T08:07:13.363Z,42.13
2022-11-18T08:09:46.059Z,43.47
2022-11-18T08:12:18.712Z,43.22
2022-11-18T08:14:51.451Z,40.05
2022-11-18T08:17:24.301Z,41.63
2022-11-18T08:19:57.007Z,36.03
2022-11-18T08:22:29.675Z,39.38
2022-11-18T08:25:02.438Z,38.70
2022-11-18T08:27:35.192Z,39.95
2022-11-18T08:30:09.438Z,38.60
2022-11-18T08:32:42.110Z,38.58
2022-11-18T08:35:15.058Z,36.42
2022-11-18T08:37:47.646Z,37.55
2022-11-18T08:40:20.268Z,40.08
2022-11-18T08:42:53.113Z,39.17
2022-11-18T08:45:27.630Z,38.88
2022-11-18T08:48:00.291Z,38.22
2022-11-18T08:50:33.047Z,41.35
2022-11-18T08:53:06.029Z,42.90
2022-11-18T08:55:38.652Z,41.33
2022-11-18T08:58:11.301Z,44.65
2022-11-18T09:00:44.377Z,41.72
2022-11-18T09:03:17.080Z,42.33
2022-11-18T09:05:50.052Z,42.35
2022-11-18T09:08:26.927Z,41.58
2022-11-18T09:10:59.369Z,41.50
2022-11-18T09:16:28.149Z,45.03
2022-11-18T09:19:13.113Z,40.65
2022-11-18T09:21:54.406Z,41.85
2022-11-18T09:24:27.044Z,40.92
2022-11-18T09:27:00.254Z,42.65
2022-11-18T09:29:33.507Z,40.03
2022-11-18T09:32:06.332Z,38.35
2022-11-18T09:34:39.273Z,38.70
2022-11-18T09:37:11.914Z,39.78
2022-11-18T09:39:44.712Z,38.63
2022-11-18T09:42:25.951Z,39.22
2022-11-18T09:45:23.526Z,37.80
2022-11-18T09:48:00.375Z,37.40
2022-11-18T09:50:50.440Z,36.58
2022-11-18T09:53:26.439Z,40.50
2022-11-18T09:55:59.434Z,34.15
2022-11-18T09:58:35.857Z,33.33
2022-11-18T10:01:14.461Z,32.25
2022-11-18T10:03:47.430Z,33.45
2022-11-18T10:06:26.919Z,32.55
2022-11-18T10:09:19.154Z,33.67
2022-11-18T10:12:04.283Z,28.48
2022-11-18T10:15:07.585Z,30.48
2022-11-18T10:18:00.228Z,37.92
2022-11-18T10:20:53.681Z,31.13
2022-11-18T10:23:32.522Z,28.85
2022-11-18T10:26:05.796Z,30.05
2022-11-18T10:28:39.364Z,33.20
2022-11-18T10:31:13.218Z,31.37
2022-11-18T10:33:45.901Z,34.55
2022-11-18T10:36:28.231Z,35.13
2022-11-18T10:39:10.475Z,34.88
2022-11-18T10:41:48.113Z,33.55
2022-11-18T10:44:40.455Z,35.35
2022-11-18T10:47:30.558Z,34.78
2022-11-18T10:50:29.250Z,35.83
2022-11-18T10:53:02.958Z,34.67
2022-11-18T10:55:35.693Z,34.58
2022-11-18T10:58:16.719Z,33.45
2022-11-18T11:00:51.026Z,32.95
2022-11-18T11:03:26.798Z,33.35
2022-11-18T11:06:14.004Z,32.35
2022-11-18T11:08:51.020Z,31.02
2022-11-18T11:11:28.989Z,31.05
2022-11-18T11:14:12.412Z,29.90
2022-11-18T11:16:56.950Z,30.65
2022-11-18T11:19:52.592Z,30.80
2022-11-18T11:22:25.245Z,30.38
2022-11-18T11:24:58.231Z,30.75
2022-11-18T11:30:59.962Z,34.85
2022-11-18T11:33:57.581Z,35.65
2022-11-18T11:36:42.277Z,37.20
2022-11-18T11:39:29.847Z,40.15
2022-11-18T11:42:24.299Z,35.13
2022-11-18T11:44:58.817Z,35.70
2022-11-18T11:47:54.340Z,39.50
2022-11-18T11:51:02.014Z,36.60
2022-11-18T11:54:04.313Z,35.35
2022-11-18T11:57:05.478Z,37.53
2022-11-18T11:59:40.217Z,35.42
2022-11-18T12:02:24.367Z,36.72
2022-11-18T12:05:08.284Z,38.25
2022-11-18T12:07:50.342Z,37.25
2022-11-18T12:10:31.729Z,36.13
2022-11-18T12:13:13.032Z,36.53
2022-11-18T12:16:16.893Z,37.15
2022-11-18T12:19:11.546Z,34.90
2022-11-18T12:21:46.143Z,35.45
2022-11-18T12:24:20.961Z,33.92
2022-11-18T12:26:54.175Z,33.15
2022-11-18T12:29:40.030Z,33.33
2022-11-18T12:32:44.129Z,33.55
2022-11-18T12:35:18.609Z,32.45
2022-11-18T12:37:53.222Z,22.70
2022-11-18T12:40:37.089Z,29.67
2022-11-18T12:43:42.928Z,30.23
2022-11-18T12:46:35.693Z,30.92
2022-11-18T12:49:23.708Z,30.52
2022-11-18T12:51:58.150Z,32.17
2022-11-18T12:57:16.531Z,29.05
2022-11-18T12:59:50.486Z,30.17
2022-11-18T13:02:26.934Z,29.67
2022-11-18T13:05:10.629Z,28.08
2022-11-18T13:08:04.112Z,26.67
2022-11-18T13:10:49.351Z,28.52
2022-11-18T13:13:26.573Z,27.42
2022-11-18T13:16:22.358Z,27.42
2022-11-18T13:18:55.332Z,25.27
2022-11-18T13:21:45.325Z,25.50
2022-11-18T13:24:22.132Z,26.45
2022-11-18T13:26:58.474Z,27.98
2022-11-18T13:29:40.150Z,28.13
2022-11-18T13:32:29.267Z,35.08
2022-11-18T13:35:17.681Z,28.13
2022-11-18T13:38:00.523Z,28.55
2022-11-18T13:41:02.995Z,28.85
2022-11-18T13:43:36.465Z,32.17
2022-11-18T13:46:16.883Z,29.30
2022-11-18T13:48:59.145Z,28.70
2022-11-18T13:51:32.236Z,28.40
2022-11-18T13:54:05.743Z,27.63
2022-11-18T13:56:42.289Z,25.70
2022-11-18T13:59:20.348Z,26.73
2022-11-18T14:01:59.611Z,26.95
2022-11-18T14:04:34.766Z,27.13
2022-11-18T14:07:23.551Z,26.80
2022-11-18T14:10:01.449Z,30.77
2022-11-18T14:12:36.446Z,28.98
2022-11-18T14:15:32.675Z,30.42
2022-11-18T14:18:20.695Z,26.60
2022-11-18T14:20:54.926Z,28.88
2022-11-18T14:23:31.791Z,29.23
2022-11-18T14:26:07.482Z,30.02
2022-11-18T14:28:40.603Z,28.80
2022-11-18T14:31:17.909Z,30.05
2022-11-18T14:34:06.851Z,30.00
2022-11-18T14:36:40.949Z,29.67
2022-11-18T14:39:31.796Z,28.80
2022-11-18T14:42:06.901Z,30.17
2022-11-18T14:44:39.584Z,30.45
2022-11-18T14:47:20.211Z,27.70
2022-11-18T14:49:52.925Z,28.95
2022-11-18T14:52:25.573Z,30.15
2022-11-18T14:54:58.211Z,31.15
2022-11-18T14:57:31.623Z,31.05
2022-11-18T15:00:06.207Z,31.25
2022-11-18T15:02:38.991Z,31.77
2022-11-18T15:05:11.799Z,31.55
2022-11-18T15:07:45.845Z,29.70
2022-11-18T15:10:18.713Z,29.83
2022-11-18T15:12:51.396Z,32.55
2022-11-18T15:15:24.232Z,28.67
2022-11-18T15:17:56.994Z,31.88
2022-11-18T15:20:30.408Z,31.58
2022-11-18T15:23:04.415Z,35.50
2022-11-18T15:25:37.006Z,33.53
2022-11-18T15:28:10.907Z,34.17
2022-11-18T15:30:43.864Z,33.22
2022-11-18T15:33:16.849Z,33.92
2022-11-18T15:35:49.738Z,31.20
2022-11-18T15:38:22.616Z,32.05
2022-11-18T15:40:56.965Z,58.20
2022-11-18T15:43:29.688Z,40.25
2022-11-18T15:46:02.432Z,33.88
2022-11-18T15:48:35.621Z,30.15
2022-11-18T15:51:12.062Z,33.15
2022-11-18T15:53:45.491Z,32.60
2022-11-18T15:56:21.526Z,31.20
2022-11-18T15:59:00.784Z,32.60
2022-11-18T16:01:37.135Z,34.42
2022-11-18T16:04:14.062Z,29.85
2022-11-18T16:06:47.141Z,33.80
2022-11-18T16:09:20.647Z,39.50
2022-11-18T16:12:10.195Z,36.78
2022-11-18T16:15:02.789Z,35.25
2022-11-18T16:17:37.576Z,34.53
2022-11-18T16:20:11.051Z,34.63
2022-11-18T16:22:44.851Z,37.25
2022-11-18T16:25:17.615Z,34.85
2022-11-18T16:27:50.425Z,32.35
2022-11-18T16:30:40.325Z,31.27
2022-11-18T16:33:15.944Z,31.65
2022-11-18T16:35:49.477Z,31.85
2022-11-18T16:38:22.147Z,34.65
2022-11-18T16:40:57.473Z,43.90
2022-11-18T16:43:31.066Z,34.58
2022-11-18T16:46:09.110Z,23.33
2022-11-18T16:48:44.932Z,29.92
2022-11-18T16:51:22.036Z,29.45
2022-11-18T16:54:01.504Z,24.65
2022-11-18T16:56:36.025Z,30.60
2022-11-18T16:59:16.392Z,42.83
2022-11-18T17:01:52.735Z,23.10
2022-11-18T17:04:27.723Z,27.05
2022-11-18T17:07:00.632Z,27.63
2022-11-18T17:09:33.444Z,22.17
2022-11-18T17:12:07.108Z,26.08
2022-11-18T17:14:40.439Z,19.70
2022-11-18T17:17:13.208Z,26.50
2022-11-18T17:19:46.048Z,18.15
2022-11-18T17:22:20.021Z,11.68
2022-11-18T17:24:55.442Z,15.55
2022-11-18T17:27:28.182Z,14.27
2022-11-18T17:30:00.796Z,8.63
2022-11-18T17:32:35.231Z,10.02
2022-11-18T17:37:42.208Z,5.38
2022-11-18T17:40:15.501Z,8.00
2022-11-18T17:42:50.783Z,4.40
2022-11-18T17:45:23.371Z,2.33
2022-11-18T17:47:57.809Z,2.28
2022-11-18T17:50:30.924Z,2.33
2022-11-18T17:53:03.971Z,1.73
2022-11-18T17:55:37.147Z,1.60
2022-11-18T17:58:10.558Z,1.38
2022-11-18T18:00:43.437Z,1.70
2022-11-18T18:03:16.275Z,1.60
2022-11-18T18:05:49.181Z,4.75
2022-11-18T18:08:21.905Z,2.85
2022-11-18T18:10:54.664Z,6.30
2022-11-18T18:13:43.025Z,3.80
2022-11-18T18:16:16.011Z,2.17
2022-11-18T18:18:49.065Z,5.40
2022-11-18T18:21:21.935Z,3.67
2022-11-18T18:23:54.824Z,3.55
2022-11-18T18:26:31.497Z,2.13
2022-11-18T18:29:05.584Z,1.30
2022-11-18T18:31:39.374Z,1.00
2022-11-18T18:34:13.490Z,1.30
2022-11-18T18:36:46.146Z,2.03
2022-11-18T18:39:19.050Z,1.85
2022-11-18T18:41:51.816Z,1.60
2022-11-18T18:44:44.447Z,2.63
2022-11-18T18:47:17.211Z,2.00
2022-11-18T18:49:53.995Z,1.30
2022-11-18T18:52:26.672Z,2.85
2022-11-18T18:55:00.518Z,3.13
2022-11-18T18:57:33.273Z,3.67
2022-11-18T19:00:06.897Z,1.25
2022-11-18T19:02:40.006Z,5.53
2022-11-18T19:05:12.723Z,6.43
2022-11-18T19:07:45.485Z,3.55
2022-11-18T19:10:18.280Z,5.10
2022-11-18T19:12:52.579Z,9.27
2022-11-18T19:15:25.812Z,8.05
2022-11-18T19:17:58.529Z,6.40
2022-11-18T19:20:35.219Z,9.00
2022-11-18T19:23:11.012Z,18.77
2022-11-18T19:25:45.787Z,56.67
2022-11-18T19:28:18.416Z,6.57
2022-11-18T19:30:51.242Z,20.85
2022-11-18T19:33:24.939Z,7.53
2022-11-18T19:36:02.105Z,11.70
2022-11-18T19:38:36.245Z,6.20
2022-11-18T19:41:11.366Z,2.08
2022-11-18T19:43:44.119Z,3.35
2022-11-18T19:46:16.860Z,5.85
2022-11-18T19:48:51.661Z,18.67
2022-11-18T19:51:25.181Z,3.80
2022-11-18T19:53:59.798Z,5.22
2022-11-18T19:56:33.125Z,3.00
2022-11-18T19:59:05.716Z,2.35
2022-11-18T20:01:40.308Z,2.40
2022-11-18T20:04:13.948Z,2.70
2022-11-18T20:06:47.004Z,6.40
2022-11-18T20:09:22.789Z,3.67
2022-11-18T20:11:55.615Z,4.40
2022-11-18T20:14:28.222Z,5.78
2022-11-18T20:17:00.874Z,8.07
2022-11-18T20:19:33.439Z,6.72
2022-11-18T20:22:06.309Z,5.32
2022-11-18T20:24:39.325Z,6.40
2022-11-18T20:27:13.871Z,5.45
2022-11-18T20:29:46.608Z,5.32
2022-11-18T20:32:20.748Z,3.40
2022-11-18T20:34:55.259Z,3.70
2022-11-18T20:37:28.329Z,3.00
2022-11-18T20:40:01.265Z,2.80
2022-11-18T20:42:52.828Z,2.85
2022-11-18T20:45:26.373Z,3.03
2022-11-18T20:47:59.210Z,2.63
2022-11-18T20:50:32.044Z,2.53
2022-11-18T20:53:07.088Z,2.47
2022-11-18T20:55:40.059Z,2.63
2022-11-18T20:58:14.821Z,2.50
2022-11-18T21:00:47.924Z,3.05
2022-11-18T21:03:21.838Z,1.75
2022-11-18T21:05:54.657Z,1.48
2022-11-18T21:08:27.712Z,2.42
2022-11-18T21:11:04.067Z,1.80
2022-11-18T21:13:53.096Z,2.50
2022-11-18T21:16:27.114Z,2.75
2022-11-18T21:18:59.783Z,2.80
2022-11-18T21:21:48.110Z,2.95
2022-11-18T21:24:23.729Z,2.00
2022-11-18T21:26:58.100Z,3.42
2022-11-18T21:29:32.812Z,5.32
2022-11-18T21:32:05.812Z,3.60
2022-11-18T21:34:38.560Z,7.20
2022-11-18T21:37:11.309Z,19.35
2022-11-18T21:39:44.037Z,25.30
2022-11-18T21:42:16.824Z,16.52
2022-11-18T21:44:49.648Z,20.60
2022-11-18T21:47:22.469Z,13.07
2022-11-18T21:49:55.188Z,2.70
2022-11-18T21:52:27.859Z,2.63
2022-11-18T21:55:05.183Z,3.00
2022-11-18T21:57:41.063Z,3.60
2022-11-18T22:00:14.653Z,4.47
2022-11-18T22:02:48.039Z,3.97
2022-11-18T22:05:20.896Z,3.00
2022-11-18T22:07:54.064Z,2.42
2022-11-18T22:10:27.553Z,1.98
2022-11-18T22:13:02.207Z,1.85
2022-11-18T22:15:34.746Z,1.90
2022-11-18T22:18:07.644Z,1.50
2022-11-18T22:20:45.442Z,1.50
2022-11-18T22:23:20.402Z,1.90
2022-11-18T22:26:06.640Z,1.50
2022-11-18T22:28:39.558Z,2.20
2022-11-18T22:31:16.158Z,1.80
2022-11-18T22:33:50.239Z,1.95
2022-11-18T22:36:25.334Z,2.10
2022-11-18T22:38:59.030Z,2.00
2022-11-18T22:41:47.413Z,2.70
2022-11-18T22:44:19.998Z,3.10
2022-11-18T22:46:52.876Z,2.05
2022-11-18T22:49:25.725Z,0.98
2022-11-18T22:51:58.638Z,1.20
2022-11-18T22:54:39.776Z,1.20
2022-11-18T22:57:13.216Z,1.17
2022-11-18T22:59:45.870Z,1.15
2022-11-18T23:02:18.621Z,1.30
2022-11-18T23:04:51.218Z,1.55
2022-11-18T23:07:23.870Z,1.10
2022-11-18T23:09:56.623Z,1.60
2022-11-18T23:12:47.696Z,1.35
2022-11-18T23:15:21.115Z,1.60
2022-11-18T23:17:54.149Z,1.60
2022-11-18T23:20:26.779Z,1.67
2022-11-18T23:23:00.365Z,2.45
2022-11-18T23:25:32.944Z,2.58
2022-11-18T23:28:05.978Z,2.00
2022-11-18T23:30:38.563Z,2.03
2022-11-18T23:33:11.250Z,1.50
2022-11-18T23:35:44.215Z,1.40
2022-11-18T23:38:16.952Z,1.40
2022-11-18T23:40:57.188Z,1.52
2022-11-18T23:43:31.628Z,1.63
2022-11-18T23:46:05.225Z,1.77
2022-11-18T23:48:40.523Z,1.83
2022-11-18T23:51:14.897Z,1.92
2022-11-18T23:53:51.908Z,1.73
2022-11-18T23:56:27.100Z,1.65
2022-11-18T23:59:00.439Z,1.55
